Latest Weather Observations for Kadina

IDS60801

Issued at 12:05 pm CST Tuesday 29 July 2014 (issued every 30 minutes, with the page automatically refreshed every 10 minutes)

About weather observations | Map of weather stations | Latest weather observations for SA | Other Formats
Station Details ID: 022050 Name: KADINA AWS Lat: -33.97 Lon: 137.66 Height: 41.14 m
Data from the previous 72 hours. | See also: Recent months at Kadina
Date/Time
CST
Temp
°C
App
Temp
°C
Dew
Point
Rel
Hum
%
Delta-T
°C
Wind Press
QNH
hPa
Press
MSL
hPa
Rain
since 9 am
mm
Dir
 
Spd
km/h
Gust
km/h
Spd
kts
Gust
kts
29/12:00pm 15.1 10.8 11.9 81 1.7 NW 26 33 14 18 1018.7 1018.7 0.0
29/11:30am 15.6 10.2 12.2 80 1.9 NW 32 39 17 21 1018.9 - 0.0
29/11:00am 15.0 9.4 11.6 80 1.8 NW 32 43 17 23 1018.9 - 0.0
29/10:30am 14.0 8.3 11.2 83 1.5 NW 32 41 17 22 1018.8 - 0.0
29/10:00am 13.5 8.2 11.2 86 1.2 NW 30 37 16 20 1018.5 - 0.0
29/09:30am 13.2 7.4 10.9 86 1.2 NW 32 41 17 22 1018.2 - 0.0
29/09:00am 13.0 7.0 10.7 86 1.2 NW 33 43 18 23 1018.1 1018.1 0.0
29/08:30am 12.6 6.7 10.3 86 1.2 NNW 32 41 17 22 1018.1 - 0.0
29/08:00am 12.5 7.2 10.0 85 1.3 NW 28 39 15 21 1018.2 - 0.0
29/07:30am 12.4 7.1 9.8 84 1.3 NW 28 37 15 20 1018.1 - 0.0
29/07:00am 11.8 7.2 9.5 86 1.2 NNW 24 32 13 17 1017.7 - 0.0
29/06:30am 11.3 7.0 9.2 87 1.1 NNW 22 30 12 16 1017.5 - 0.0
29/06:00am 11.0 7.1 8.8 86 1.1 NNW 19 24 10 13 1017.7 1017.7 0.0
29/05:30am 11.1 6.5 8.3 83 1.4 NW 22 28 12 15 1017.5 - 0.0
29/05:00am 11.3 6.3 8.0 80 1.6 NNW 24 30 13 16 1017.1 - 0.0
29/04:30am 11.4 5.5 7.7 78 1.8 NW 28 37 15 20 1016.9 - 0.0
29/04:00am 11.3 5.8 7.4 77 1.9 NW 26 33 14 18 1017.2 - 0.0
29/03:30am 11.3 6.6 7.6 78 1.8 NW 22 28 12 15 1017.2 - 0.0
29/03:00am 11.8 6.2 7.3 74 2.2 NW 26 32 14 17 1016.8 1016.8 0.0
29/02:30am 11.3 6.6 7.6 78 1.8 NW 22 28 12 15 1017.1 - 0.0
29/02:00am 11.6 6.1 7.5 76 2.0 NW 26 33 14 18 1017.1 - 0.0
29/01:30am 11.4 6.7 7.7 78 1.8 NW 22 30 12 16 1017.4 - 0.0
29/01:00am 11.4 6.7 7.9 79 1.7 NW 22 28 12 15 1017.5 - 0.0
29/12:30am 11.6 7.1 8.5 81 1.5 NW 22 28 12 15 1017.6 - 0.0
29/12:00am 11.9 7.4 8.6 80 1.6 NW 22 30 12 16 1017.8 1017.8 0.0
 
Date/Time
CST
Temp
°C
App
Temp
°C
Dew
Point
Rel
Hum
%
Delta-T
°C
Wind Press
QNH
hPa
Press
MSL
hPa
Rain
since 9 am
mm
Dir
 
Spd
km/h
Gust
km/h
Spd
kts
Gust
kts
28/11:30pm 11.6 7.2 9.0 84 1.3 NW 22 26 12 14 1018.0 - 0.0
28/11:00pm 11.8 7.4 8.8 82 1.5 NW 22 28 12 15 1018.0 - 0.0
28/10:30pm 11.3 7.3 8.9 85 1.2 NW 20 24 11 13 1017.9 - 0.0
28/10:00pm 11.4 7.4 9.0 85 1.2 NW 20 24 11 13 1018.2 - 0.0
28/09:30pm 11.2 7.4 8.9 86 1.1 NW 19 20 10 11 1018.3 - 0.0
28/09:00pm 11.3 7.9 9.0 86 1.1 WNW 17 20 9 11 1018.2 1018.2 0.0
28/08:30pm 10.4 6.8 8.5 88 0.9 NW 17 20 9 11 1017.9 - 0.0
28/08:00pm 7.8 4.9 6.6 92 0.6 NNW 11 15 6 8 1017.9 - 0.0
28/07:30pm 8.1 4.9 6.9 92 0.6 N 13 13 7 7 1017.7 - 0.0
28/07:00pm 8.2 5.1 7.1 93 0.5 N 13 15 7 8 1017.4 - 0.0
28/06:30pm 9.1 5.7 7.7 91 0.7 N 15 15 8 8 1017.1 - 0.0
28/06:00pm 10.0 6.9 8.8 92 0.6 N 15 17 8 9 1017.0 1017.0 0.0
28/05:30pm 11.5 9.1 9.9 90 0.8 NNW 13 15 7 8 1017.0 - 0.0
28/05:00pm 13.2 11.1 11.3 88 1.0 N 13 15 7 8 1016.8 - 0.0
28/04:30pm 14.4 12.5 11.7 84 1.5 NNW 13 17 7 9 1016.7 - 0.0
28/04:00pm 14.7 12.4 11.8 83 1.6 NW 15 19 8 10 1016.8 - 0.0
28/03:30pm 14.8 12.2 11.9 83 1.6 NW 17 22 9 12 1017.0 - 0.0
28/03:00pm 15.2 13.0 12.0 81 1.7 NW 15 20 8 11 1017.1 1017.1 0.0
28/02:30pm 14.8 12.0 11.4 80 1.8 NW 17 22 9 12 1017.2 - 0.0
28/02:00pm 14.3 11.0 10.9 80 1.8 NNW 19 20 10 11 1017.3 - 0.0
28/01:30pm 14.5 11.9 10.7 78 2.0 NNW 15 19 8 10 1017.6 - 0.0
28/01:00pm 14.1 11.5 10.7 80 1.8 N 15 20 8 11 1018.0 - 0.0
28/12:30pm 14.2 11.6 10.8 80 1.8 NNW 15 19 8 10 1018.3 - 0.0
28/12:00pm 13.9 10.5 11.2 84 1.4 N 20 24 11 13 1018.4 1018.4 0.0
28/11:30am 13.6 11.0 10.8 83 1.5 N 15 20 8 11 1019.0 - 0.0
28/11:00am 13.6 11.0 10.8 83 1.5 N 15 17 8 9 1019.3 - 0.0
28/10:30am 13.4 10.8 10.6 83 1.5 N 15 19 8 10 1019.3 - 0.0
28/10:00am 13.0 10.6 10.2 83 1.4 N 13 17 7 9 1019.3 - 0.0
28/09:30am 12.8 10.1 10.2 84 1.3 N 15 19 8 10 1019.5 - 0.0
28/09:00am 12.0 9.6 10.2 89 0.9 N 13 15 7 8 1019.7 1019.7 0.2
28/08:30am 11.3 8.9 10.0 92 0.7 N 13 15 7 8 1019.2 - 0.2
28/08:00am 10.8 7.9 9.6 92 0.6 N 15 19 8 10 1019.3 - 0.2
28/07:30am 10.3 8.4 9.2 93 0.5 NNE 9 13 5 7 1019.0 - 0.0
28/07:00am 10.2 7.5 8.8 91 0.7 N 13 15 7 8 1018.8 - 0.0
28/06:30am 10.0 7.2 8.6 91 0.7 N 13 15 7 8 1018.5 - 0.0
28/06:00am 10.1 7.8 8.9 92 0.6 N 11 15 6 8 1018.4 1018.4 0.0
28/05:30am 9.7 6.9 8.6 93 0.5 N 13 17 7 9 1018.2 - 0.0
28/05:00am 9.6 6.8 8.4 92 0.6 N 13 15 7 8 1018.1 - 0.0
28/04:30am 9.7 6.5 8.5 92 0.6 N 15 17 8 9 1018.2 - 0.0
28/04:00am 9.5 6.2 8.1 91 0.7 N 15 17 8 9 1018.5 - 0.0
28/03:30am 8.8 6.4 7.1 89 0.8 NNE 9 11 5 6 1018.6 - 0.0
28/03:00am 10.2 8.3 7.4 83 1.3 N 7 9 4 5 1018.6 1018.6 0.0
28/02:30am 10.1 8.4 7.7 85 1.2 NNW 6 7 3 4 1018.4 - 0.0
28/02:00am 10.7 7.7 7.9 83 1.4 NNE 13 15 7 8 1018.2 - 0.0
28/01:30am 11.3 8.0 8.0 80 1.6 N 15 19 8 10 1018.2 - 0.0
28/01:00am 10.9 8.4 8.0 82 1.4 N 11 15 6 8 1018.3 - 0.0
28/12:30am 11.0 8.4 7.9 81 1.5 N 11 13 6 7 1018.6 - 0.0
28/12:00am 10.9 8.5 8.5 85 1.2 N 11 15 6 8 1018.8 1018.8 0.0
 
Date/Time
CST
Temp
°C
App
Temp
°C
Dew
Point
Rel
Hum
%
Delta-T
°C
Wind Press
QNH
hPa
Press
MSL
hPa
Rain
since 9 am
mm
Dir
 
Spd
km/h
Gust
km/h
Spd
kts
Gust
kts
27/11:30pm 10.3 7.8 8.1 86 1.1 NNE 11 15 6 8 1019.1 - 0.0
27/11:00pm 11.3 7.3 8.2 81 1.5 N 19 20 10 11 1019.2 - 0.0
27/10:30pm 11.7 8.5 8.4 80 1.6 N 15 17 8 9 1019.6 - 0.0
27/10:00pm 11.2 7.7 8.6 84 1.3 N 17 19 9 10 1019.5 - 0.0
27/09:30pm 12.0 8.1 8.5 79 1.7 N 19 22 10 12 1019.7 - 0.0
27/09:00pm 12.5 8.5 8.4 76 2.0 N 19 20 10 11 1019.7 1019.7 0.0
27/08:30pm 11.5 8.4 8.7 83 1.4 N 15 17 8 9 1019.8 - 0.0
27/08:00pm 11.5 8.1 9.1 85 1.2 N 17 19 9 10 1019.7 - 0.0
27/07:30pm 11.8 8.4 9.0 83 1.4 N 17 19 9 10 1019.7 - 0.0
27/07:00pm 12.3 8.9 9.0 80 1.7 N 17 19 9 10 1019.7 - 0.0
27/06:30pm 12.8 9.4 9.1 78 1.9 N 17 20 9 11 1019.5 - 0.0
27/06:00pm 13.1 9.3 9.0 76 2.1 N 19 20 10 11 1019.3 1019.3 0.0
27/05:30pm 13.7 10.2 8.7 72 2.5 N 17 20 9 11 1019.3 - 0.0
27/05:00pm 14.8 10.7 8.7 67 3.1 N 20 28 11 15 1019.2 - 0.0
27/04:30pm 15.1 11.1 9.0 67 3.1 N 20 26 11 14 1019.2 - 0.0
27/04:00pm 15.6 11.7 9.3 66 3.3 N 20 26 11 14 1019.4 - 0.0
27/03:30pm 16.2 11.5 9.2 63 3.6 N 24 32 13 17 1019.4 - 0.0
27/03:00pm 16.5 11.4 9.2 62 3.8 N 26 35 14 19 1019.6 1019.6 0.0
27/02:30pm 16.7 10.9 9.6 63 3.7 N 30 39 16 21 1019.8 - 0.0
27/02:00pm 17.4 10.7 8.0 54 4.8 N 33 46 18 25 1020.0 - 0.0
27/01:30pm 16.8 9.9 9.0 60 4.0 N 35 46 19 25 1020.4 - 0.0
27/01:00pm 16.2 8.4 8.4 60 4.0 N 39 52 21 28 1020.5 - 0.0
27/12:30pm 15.8 9.3 8.8 63 3.6 N 33 48 18 26 1021.6 - 0.0
27/12:00pm 15.0 8.5 9.1 68 3.0 N 33 43 18 23 1022.4 1022.4 0.0
27/11:30am 14.7 8.2 8.9 68 3.0 N 33 43 18 23 1023.0 - 0.0
27/11:00am 14.3 8.5 9.3 72 2.6 N 30 35 16 19 1023.4 - 0.0
27/10:30am 13.4 7.1 9.1 75 2.2 N 32 39 17 21 1023.5 - 0.0
27/10:00am 12.7 7.2 9.0 78 1.9 N 28 35 15 19 1024.2 - 0.0
27/09:30am 12.3 7.3 9.7 84 1.3 N 26 35 14 19 1024.6 - 0.0
27/09:00am 10.5 7.5 9.3 92 0.6 N 15 20 8 11 1024.9 1024.8 0.2
27/08:30am 8.3 5.3 7.7 96 0.3 NNE 13 15 7 8 1024.7 - 0.2
27/08:00am 5.8 2.6 5.2 96 0.3 NE 11 13 6 7 1024.2 - 0.2
27/07:30am 6.1 2.2 5.5 96 0.3 NE 15 17 8 9 1024.0 - 0.2
27/07:00am 6.4 1.8 5.8 96 0.3 NE 19 20 10 11 1023.7 - 0.2
27/06:30am 6.5 2.7 5.9 96 0.3 NE 15 19 8 10 1023.5 - 0.2
27/06:00am 6.6 2.5 6.2 97 0.2 NNE 17 20 9 11 1023.4 1023.4 0.2
27/05:30am 6.4 1.9 6.0 97 0.2 NNE 19 20 10 11 1023.6 - 0.2
27/05:00am 5.6 1.2 5.0 96 0.3 NNE 17 17 9 9 1024.0 - 0.2
27/04:30am 5.7 1.4 5.1 96 0.3 NNE 17 17 9 9 1024.3 - 0.2
27/04:00am 5.6 1.6 5.0 96 0.3 NNE 15 15 8 8 1024.6 - 0.2
27/03:30am 6.4 2.2 5.8 96 0.3 NNE 17 19 9 10 1024.5 - 0.2
27/03:00am 5.2 1.5 4.3 94 0.4 N 13 15 7 8 1024.6 1024.5 0.2
27/02:30am 6.4 2.2 5.5 94 0.4 NNE 17 17 9 9 1024.9 - 0.0
27/02:00am 6.8 2.6 5.9 94 0.4 NNE 17 19 9 10 1024.9 - 0.0
27/01:30am 7.0 2.8 5.9 93 0.5 NNE 17 19 9 10 1024.7 - 0.0
27/01:00am 6.8 2.6 5.6 92 0.5 NNE 17 19 9 10 1024.9 - 0.0
27/12:30am 6.8 2.6 5.6 92 0.5 NNE 17 19 9 10 1025.1 - 0.0
27/12:00am 6.7 2.5 5.8 94 0.4 NNE 17 19 9 10 1025.3 1025.2 0.0
 
Date/Time
CST
Temp
°C
App
Temp
°C
Dew
Point
Rel
Hum
%
Delta-T
°C
Wind Press
QNH
hPa
Press
MSL
hPa
Rain
since 9 am
mm
Dir
 
Spd
km/h
Gust
km/h
Spd
kts
Gust
kts
26/11:30pm 5.1 1.4 4.4 95 0.3 NE 13 15 7 8 1025.4 - 0.0
26/11:00pm 4.0 0.8 3.1 94 0.4 ENE 9 11 5 6 1025.6 - 0.0
26/10:30pm 5.0 1.7 4.3 95 0.3 ENE 11 13 6 7 1025.8 - 0.0
26/10:00pm 4.3 0.8 3.6 95 0.3 E 11 13 6 7 1025.9 - 0.0
26/09:30pm 4.5 0.7 3.8 95 0.3 E 13 15 7 8 1026.1 - 0.0
26/09:00pm 4.7 0.9 3.8 94 0.4 E 13 15 7 8 1026.2 1026.1 0.0
26/08:30pm 5.4 2.5 4.5 94 0.4 E 9 11 5 6 1026.2 - 0.0
26/08:00pm 5.8 2.2 4.9 94 0.4 E 13 13 7 7 1026.3 - 0.0
26/07:30pm 7.4 4.1 6.5 94 0.4 E 13 13 7 7 1026.2 - 0.0
26/07:00pm 7.5 4.6 6.3 92 0.5 E 11 13 6 7 1026.2 - 0.0
26/06:30pm 8.3 5.4 6.6 89 0.8 E 11 11 6 6 1026.0 - 0.0
26/06:00pm 11.1 9.5 8.8 86 1.1 ENE 7 9 4 5 1025.9 1025.8 0.0
26/05:30pm 12.6 11.3 10.1 85 1.3 NE 7 9 4 5 1025.8 - 0.0
26/05:00pm 13.6 11.6 10.2 80 1.8 NNE 11 13 6 7 1025.8 - 0.0
26/04:30pm 14.8 12.6 9.4 70 2.8 NNE 11 13 6 7 1025.9 - 0.0
26/04:00pm 15.6 13.8 9.3 66 3.3 N 9 11 5 6 1025.9 - 0.0
26/03:30pm 15.9 14.1 7.9 59 4.0 N 7 11 4 6 1025.8 - 0.0
26/03:00pm 15.6 13.4 9.3 66 3.2 N 11 15 6 8 1025.9 1025.8 0.0
26/02:30pm 15.2 12.7 9.8 70 2.8 N 13 19 7 10 1026.0 - 0.0
26/02:00pm 15.0 12.5 11.0 77 2.1 N 15 22 8 12 1026.1 - 0.0
26/01:30pm 14.3 11.3 10.5 78 2.0 N 17 22 9 12 1026.4 - 0.0
26/01:00pm 14.8 12.4 11.4 80 1.8 NNW 15 20 8 11 1026.8 - 0.0
26/12:30pm 13.6 11.3 10.6 82 1.6 NNW 13 17 7 9 1027.4 - 0.0

Other Formats:

Comma delimited format used in spreadsheet applications
http://www.bom.gov.au/fwo/IDS60801/IDS60801.94685.axf

JavaScript Object Notation format (JSON) in row-major order
http://www.bom.gov.au/fwo/IDS60801/IDS60801.94685.json